Time;durP1;ratioP1;P1;durP2;ratioP2;P2;SDS_P1;SDS_P2;PMS_P1;PMS_P2;Temp;Humidity;BMP_temperature;BMP_pressure;BME280_temperature;BME280_humidity;BME280_pressure;Samples;Min_cycle;Max_cycle;Signal;HPM_P1;HPM_P2
2021/08/04 00:00:58;;;;;;;0.40;0.20;;;15.70;99.90;;;;;;5075448;28;20394;-76
2021/08/04 00:03:23;;;;;;;0.40;0.30;;;15.60;99.90;;;;;;5093517;28;20366;-79
2021/08/04 00:05:49;;;;;;;0.40;0.20;;;15.50;99.90;;;;;;5092988;28;20386;-80
2021/08/04 00:08:15;;;;;;;0.40;0.25;;;15.50;99.90;;;;;;5093331;28;20374;-79
2021/08/04 00:10:40;;;;;;;0.40;0.20;;;15.80;99.90;;;;;;5092536;28;20515;-78
2021/08/04 00:13:06;;;;;;;0.40;0.20;;;15.30;99.90;;;;;;5093343;28;20420;-78
2021/08/04 00:15:32;;;;;;;0.40;0.20;;;15.40;99.90;;;;;;5092897;28;20378;-78
2021/08/04 00:17:58;;;;;;;0.40;0.30;;;15.40;99.90;;;;;;5093042;28;20909;-78
2021/08/04 00:20:23;;;;;;;0.40;0.20;;;15.40;99.90;;;;;;5092987;28;20382;-79
2021/08/04 00:22:49;;;;;;;0.40;0.20;;;15.40;99.90;;;;;;5092472;28;20930;-78
2021/08/04 00:25:15;;;;;;;0.40;0.20;;;15.30;99.90;;;;;;5093156;28;20378;-79
2021/08/04 00:27:40;;;;;;;0.40;0.20;;;15.20;99.90;;;;;;5092339;28;20484;-79
2021/08/04 00:30:07;;;;;;;0.40;0.20;;;15.20;99.90;;;;;;5093270;28;20366;-80
2021/08/04 00:32:32;;;;;;;0.40;0.20;;;15.00;99.90;;;;;;5092028;28;20389;-78
2021/08/04 00:34:58;;;;;;;0.40;0.20;;;15.10;99.90;;;;;;5092412;28;20462;-79
2021/08/04 00:37:24;;;;;;;0.40;0.20;;;15.10;99.90;;;;;;5092372;28;20547;-78
2021/08/04 00:39:49;;;;;;;0.40;0.20;;;15.00;99.90;;;;;;5092244;28;20386;-80
2021/08/04 00:42:19;;;;;;;0.40;0.20;;;15.00;99.90;;;;;;5092832;28;20398;-76
2021/08/04 00:44:46;;;;;;;0.40;0.20;;;14.90;99.90;;;;;;5092201;28;20493;-80
2021/08/04 00:47:12;;;;;;;0.40;0.20;;;13.90;99.90;;;;;;5092773;28;20378;-78
2021/08/04 00:49:38;;;;;;;0.40;0.20;;;14.80;99.90;;;;;;5092183;28;20382;-79
2021/08/04 00:52:04;;;;;;;0.40;0.30;;;14.80;99.90;;;;;;5092903;28;20411;-79
2021/08/04 00:54:30;;;;;;;0.40;0.30;;;14.80;99.90;;;;;;5092543;28;20406;-80
2021/08/04 00:56:56;;;;;;;0.40;0.20;;;14.80;99.90;;;;;;5091644;28;20862;-79
2021/08/04 00:59:22;;;;;;;0.40;0.30;;;14.80;99.90;;;;;;5108207;28;20390;-77
2021/08/04 01:01:53;;;;;;;0.40;0.30;;;14.80;99.90;;;;;;5091556;28;20381;-79
2021/08/04 01:04:21;;;;;;;0.40;0.30;;;14.90;99.90;;;;;;5092365;28;20374;-79
2021/08/04 01:06:50;;;;;;;0.40;0.20;;;14.70;99.90;;;;;;5092124;28;20389;-79
2021/08/04 01:09:18;;;;;;;0.40;0.20;;;14.90;99.90;;;;;;5091854;28;20378;-79
2021/08/04 01:11:58;;;;;;;0.40;0.20;;;14.90;99.90;;;;;;5091353;28;20378;-79
2021/08/04 01:14:28;;;;;;;0.40;0.20;;;14.80;99.90;;;;;;5091893;28;20742;-79
2021/08/04 01:16:55;;;;;;;0.40;0.30;;;14.70;99.90;;;;;;5091404;28;20455;-79
2021/08/04 01:20:01;;;;;;;0.40;0.30;;;14.50;99.90;;;;;;5092203;28;20398;-77
2021/08/04 01:22:37;;;;;;;0.40;0.20;;;14.60;99.90;;;;;;5090565;28;20463;-80
2021/08/04 01:25:06;;;;;;;0.40;0.20;;;14.00;99.90;;;;;;5092204;28;20382;-76
2021/08/04 01:27:33;;;;;;;0.40;0.22;;;14.50;99.90;;;;;;5091615;28;20386;-78
2021/08/04 01:29:59;;;;;;;0.40;0.30;;;14.60;99.90;;;;;;5091335;28;20469;-78
2021/08/04 01:32:27;;;;;;;0.40;0.30;;;14.60;99.90;;;;;;5091840;28;20378;-79
2021/08/04 01:34:54;;;;;;;0.40;0.30;;;14.60;99.90;;;;;;5091138;28;20443;-77
2021/08/04 01:37:22;;;;;;;0.40;0.20;;;14.50;99.90;;;;;;5091843;28;20485;-79
2021/08/04 01:39:49;;;;;;;0.40;0.30;;;14.60;99.90;;;;;;5090799;28;20781;-78
2021/08/04 01:42:16;;;;;;;0.40;0.20;;;14.80;99.90;;;;;;5091770;28;20388;-79
2021/08/04 01:44:42;;;;;;;0.40;0.20;;;14.60;99.90;;;;;;5072838;28;20809;-79
2021/08/04 01:47:09;;;;;;;0.40;0.20;;;14.80;99.90;;;;;;5091192;28;20874;-78
2021/08/04 01:49:35;;;;;;;0.40;0.30;;;14.80;99.90;;;;;;5091127;28;20780;-78
2021/08/04 01:52:01;;;;;;;0.40;0.20;;;14.50;99.90;;;;;;5091525;28;20739;-78
2021/08/04 01:54:28;;;;;;;0.40;0.30;;;14.30;99.90;;;;;;5091216;28;20823;-78
2021/08/04 01:56:53;;;;;;;0.40;0.30;;;14.20;99.90;;;;;;5090818;28;20406;-77
2021/08/04 01:59:20;;;;;;;0.40;0.20;;;14.50;99.90;;;;;;5091446;28;20731;-78
2021/08/04 02:01:45;;;;;;;0.40;0.20;;;14.50;99.90;;;;;;5090740;28;20378;-78
2021/08/04 02:04:11;;;;;;;0.40;0.30;;;14.60;99.90;;;;;;5091302;28;20432;-78
2021/08/04 02:06:58;;;;;;;0.40;0.20;;;14.50;99.90;;;;;;5090776;28;20384;-78
2021/08/04 02:09:36;;;;;;;0.40;0.30;;;14.70;99.90;;;;;;5091404;28;20370;-78
2021/08/04 02:12:06;;;;;;;0.40;0.22;;;14.50;99.90;;;;;;5091177;28;20370;-78
2021/08/04 02:14:48;;;;;;;0.40;0.20;;;14.30;99.90;;;;;;5091440;28;20381;-78
2021/08/04 02:17:20;;;;;;;0.40;0.30;;;14.50;99.90;;;;;;5090919;28;20413;-78
2021/08/04 02:19:49;;;;;;;0.40;0.30;;;14.40;99.90;;;;;;5090666;28;20449;-78
2021/08/04 02:22:30;;;;;;;0.40;0.20;;;14.40;99.90;;;;;;5091121;28;20862;-78
2021/08/04 02:25:04;;;;;;;0.40;0.20;;;14.30;99.90;;;;;;5090482;28;20382;-78
2021/08/04 02:27:31;;;;;;;0.40;0.30;;;14.40;99.90;;;;;;5091136;28;20385;-77
2021/08/04 02:29:58;;;;;;;0.40;0.30;;;14.40;99.90;;;;;;5090346;28;20362;-78
2021/08/04 02:32:24;;;;;;;0.40;0.30;;;14.40;99.90;;;;;;5090898;28;20842;-79
2021/08/04 02:34:50;;;;;;;0.40;0.30;;;14.50;99.90;;;;;;5090429;28;20374;-78
2021/08/04 02:37:17;;;;;;;0.40;0.20;;;14.70;99.90;;;;;;5072715;28;20913;-78
2021/08/04 02:39:43;;;;;;;0.40;0.20;;;14.60;99.90;;;;;;5090624;28;20390;-78
2021/08/04 02:42:09;;;;;;;0.40;0.30;;;14.50;99.90;;;;;;5091025;28;20412;-77
2021/08/04 02:44:35;;;;;;;0.40;0.20;;;14.60;99.90;;;;;;5091243;28;20735;-78
2021/08/04 02:47:01;;;;;;;0.40;0.20;;;14.30;99.90;;;;;;5090402;28;20434;-78
2021/08/04 02:49:27;;;;;;;0.40;0.30;;;14.40;99.90;;;;;;5091064;28;20468;-78
2021/08/04 02:51:53;;;;;;;0.40;0.20;;;14.40;99.90;;;;;;5090359;28;20374;-78
2021/08/04 02:54:19;;;;;;;0.40;0.25;;;14.30;99.90;;;;;;5090854;28;20377;-78
2021/08/04 02:56:45;;;;;;;0.40;0.20;;;14.20;99.90;;;;;;5090356;28;20766;-77
2021/08/04 02:59:10;;;;;;;0.40;0.20;;;14.10;99.90;;;;;;5092157;28;20386;-78
2021/08/04 03:01:36;;;;;;;0.40;0.30;;;14.20;99.90;;;;;;5095007;28;20478;-77
2021/08/04 03:04:02;;;;;;;0.40;0.20;;;14.30;99.90;;;;;;5093948;28;20766;-77
2021/08/04 03:06:27;;;;;;;0.40;0.30;;;14.20;99.90;;;;;;5094640;28;20373;-78
2021/08/04 03:08:53;;;;;;;0.40;0.20;;;14.30;99.90;;;;;;5093704;28;20409;-77
2021/08/04 03:11:18;;;;;;;0.40;0.20;;;14.10;99.90;;;;;;5094576;28;20849;-78
2021/08/04 03:13:44;;;;;;;0.40;0.20;;;14.50;99.90;;;;;;5093999;28;20374;-78
2021/08/04 03:16:10;;;;;;;0.40;0.20;;;14.40;99.90;;;;;;5094281;28;20406;-78
2021/08/04 03:18:35;;;;;;;0.40;0.20;;;14.50;99.90;;;;;;5094665;28;20451;-77
2021/08/04 03:21:01;;;;;;;0.40;0.20;;;14.20;99.90;;;;;;5094073;28;20382;-77
2021/08/04 03:23:26;;;;;;;0.40;0.40;;;14.50;99.90;;;;;;5094001;28;20441;-78
2021/08/04 03:25:52;;;;;;;0.40;0.20;;;14.40;99.90;;;;;;5093621;28;20427;-78
2021/08/04 03:28:18;;;;;;;0.40;0.20;;;14.60;99.90;;;;;;5093723;28;20413;-78
2021/08/04 03:30:44;;;;;;;0.40;0.20;;;14.20;99.90;;;;;;5075276;28;20492;-77
2021/08/04 03:33:09;;;;;;;0.40;0.20;;;14.20;99.90;;;;;;5094432;28;20386;-78
2021/08/04 03:35:35;;;;;;;0.40;0.23;;;14.40;99.90;;;;;;5075815;28;20683;-79
2021/08/04 03:38:01;;;;;;;0.40;0.20;;;14.40;99.90;;;;;;5092666;28;20386;-78
2021/08/04 03:40:27;;;;;;;0.40;0.30;;;14.50;99.90;;;;;;5094068;28;20366;-78
2021/08/04 03:42:53;;;;;;;0.40;0.20;;;14.60;99.90;;;;;;5093411;28;20412;-78
2021/08/04 03:45:19;;;;;;;0.40;0.20;;;14.30;99.90;;;;;;5093858;28;20374;-78
2021/08/04 03:47:44;;;;;;;0.40;0.20;;;14.40;99.90;;;;;;5093235;28;20447;-78
2021/08/04 03:50:10;;;;;;;0.40;0.20;;;14.60;99.90;;;;;;5093424;28;20386;-79
2021/08/04 03:52:36;;;;;;;0.40;0.20;;;14.10;99.90;;;;;;5093540;28;20410;-78
2021/08/04 03:55:02;;;;;;;0.40;0.20;;;14.20;99.90;;;;;;5093025;28;20782;-79
2021/08/04 03:57:28;;;;;;;0.40;0.20;;;14.30;99.90;;;;;;5093688;28;20509;-77
2021/08/04 03:59:53;;;;;;;0.40;0.30;;;14.10;99.90;;;;;;5093288;28;20382;-77
2021/08/04 04:02:19;;;;;;;0.40;0.30;;;14.20;99.90;;;;;;5093561;28;20374;-78
2021/08/04 04:04:45;;;;;;;0.40;0.30;;;14.40;99.90;;;;;;5093050;28;20374;-77
2021/08/04 04:07:12;;;;;;;0.40;0.20;;;14.30;99.90;;;;;;5093697;28;20386;-77
2021/08/04 04:09:38;;;;;;;0.40;0.20;;;14.40;99.90;;;;;;5093451;28;20449;-79
2021/08/04 04:12:04;;;;;;;0.40;0.20;;;14.20;99.90;;;;;;5092575;28;20830;-79
2021/08/04 04:14:30;;;;;;;0.40;0.20;;;14.20;99.90;;;;;;5093155;28;20905;-77
2021/08/04 04:16:55;;;;;;;0.40;0.20;;;14.20;99.90;;;;;;5092550;28;20410;-77
2021/08/04 04:19:21;;;;;;;0.40;0.30;;;14.30;99.90;;;;;;5093117;28;20758;-79
2021/08/04 04:21:47;;;;;;;0.40;0.20;;;14.10;99.90;;;;;;5092638;28;20378;-79
2021/08/04 04:24:13;;;;;;;0.40;0.20;;;14.40;99.90;;;;;;5093324;28;20375;-79
2021/08/04 04:26:38;;;;;;;0.40;0.20;;;13.80;99.90;;;;;;5093158;28;20387;-79
2021/08/04 04:29:04;;;;;;;0.40;0.23;;;14.30;99.90;;;;;;5092632;28;20853;-79
2021/08/04 04:31:30;;;;;;;0.40;0.20;;;14.60;99.90;;;;;;5093018;28;20739;-79
2021/08/04 04:33:55;;;;;;;0.40;0.30;;;14.20;99.90;;;;;;5092369;28;20392;-78
2021/08/04 04:36:21;;;;;;;0.40;0.30;;;14.20;99.90;;;;;;5092485;28;20428;-79
2021/08/04 04:38:46;;;;;;;0.40;0.20;;;14.20;99.90;;;;;;5092411;28;20382;-78
2021/08/04 04:41:12;;;;;;;0.40;0.20;;;14.30;99.90;;;;;;5092850;28;20370;-79
2021/08/04 04:43:40;;;;;;;0.40;0.20;;;14.10;99.90;;;;;;5092878;28;20375;-79
2021/08/04 04:46:07;;;;;;;0.40;0.20;;;14.70;99.90;;;;;;5092102;28;20378;-80
2021/08/04 04:48:32;;;;;;;0.40;0.20;;;14.40;99.90;;;;;;5092762;28;20386;-79
2021/08/04 04:50:58;;;;;;;0.40;0.20;;;14.70;99.90;;;;;;5092298;28;20409;-78
2021/08/04 04:53:24;;;;;;;0.40;0.20;;;14.50;99.90;;;;;;5092632;28;20390;-79
2021/08/04 04:55:49;;;;;;;0.40;0.20;;;14.20;99.90;;;;;;5091831;28;20942;-78
2021/08/04 04:58:15;;;;;;;0.40;0.20;;;14.20;99.90;;;;;;5092211;28;20459;-79
2021/08/04 05:00:40;;;;;;;0.40;0.20;;;14.10;99.90;;;;;;5092161;28;20371;-79
2021/08/04 05:03:06;;;;;;;0.40;0.30;;;14.20;99.90;;;;;;5073633;28;20659;-79
2021/08/04 05:05:32;;;;;;;0.40;0.20;;;14.40;99.90;;;;;;5107980;28;20390;-79
2021/08/04 05:07:57;;;;;;;0.40;0.20;;;14.10;99.90;;;;;;5091781;28;20465;-78
2021/08/04 05:10:23;;;;;;;0.40;0.20;;;14.20;99.90;;;;;;5092328;28;20370;-79
2021/08/04 05:12:49;;;;;;;0.40;0.20;;;14.30;99.90;;;;;;5091983;28;20382;-79
2021/08/04 05:15:14;;;;;;;0.40;0.20;;;14.10;99.90;;;;;;5092207;28;20378;-79
2021/08/04 05:17:40;;;;;;;0.40;0.20;;;14.30;99.90;;;;;;5091853;28;20443;-79
2021/08/04 05:20:08;;;;;;;0.40;0.30;;;14.50;99.90;;;;;;5091563;28;20855;-79
2021/08/04 05:22:34;;;;;;;0.40;0.30;;;14.40;99.90;;;;;;5091546;28;20700;-79
2021/08/04 05:25:00;;;;;;;0.40;0.20;;;14.40;99.90;;;;;;5091567;28;20380;-79
2021/08/04 05:27:25;;;;;;;0.40;0.20;;;14.70;99.90;;;;;;5091455;28;20545;-78
2021/08/04 05:29:51;;;;;;;0.40;0.30;;;14.90;99.90;;;;;;5091619;28;20378;-79
2021/08/04 05:32:17;;;;;;;0.40;0.30;;;14.80;99.90;;;;;;5107539;28;20404;-79
2021/08/04 05:34:42;;;;;;;0.40;0.20;;;14.90;99.90;;;;;;5092175;28;20374;-78
2021/08/04 05:37:08;;;;;;;0.40;0.20;;;15.00;99.90;;;;;;5090841;28;20398;-79
2021/08/04 05:39:33;;;;;;;0.40;0.30;;;15.10;99.90;;;;;;5091907;28;20935;-78
2021/08/04 05:41:59;;;;;;;0.40;0.20;;;15.20;99.90;;;;;;5090800;28;20735;-79
2021/08/04 05:44:25;;;;;;;0.40;0.30;;;15.10;99.90;;;;;;5091486;28;20500;-79
2021/08/04 05:46:50;;;;;;;0.40;0.20;;;15.10;99.90;;;;;;5106693;28;20408;-79
2021/08/04 05:49:16;;;;;;;0.40;0.30;;;15.20;99.90;;;;;;5091376;28;20386;-79
2021/08/04 05:51:42;;;;;;;0.40;0.30;;;15.30;99.90;;;;;;5091549;28;20761;-80
2021/08/04 05:54:07;;;;;;;0.40;0.20;;;15.20;99.90;;;;;;5091045;28;20374;-80
2021/08/04 05:56:33;;;;;;;0.40;0.30;;;15.10;99.90;;;;;;5091326;28;20401;-79
2021/08/04 05:58:59;;;;;;;0.40;0.30;;;15.20;99.90;;;;;;5090655;28;20783;-79
2021/08/04 06:01:24;;;;;;;0.40;0.30;;;15.20;99.90;;;;;;5091194;28;20751;-79
2021/08/04 06:03:50;;;;;;;0.40;0.20;;;15.20;99.90;;;;;;5091158;28;20386;-78
2021/08/04 06:06:16;;;;;;;0.40;0.20;;;15.10;99.90;;;;;;5091354;28;20378;-79
2021/08/04 06:08:41;;;;;;;0.40;0.20;;;15.30;99.90;;;;;;5091450;28;20378;-79
2021/08/04 06:11:07;;;;;;;0.40;0.30;;;15.40;99.90;;;;;;5090459;28;20499;-78
2021/08/04 06:13:33;;;;;;;0.40;0.30;;;15.50;99.90;;;;;;5091327;28;20378;-79
2021/08/04 06:15:58;;;;;;;0.40;0.20;;;15.60;99.90;;;;;;5090507;28;20397;-79
2021/08/04 06:18:24;;;;;;;0.40;0.20;;;15.60;99.90;;;;;;5091541;28;20800;-78
2021/08/04 06:20:50;;;;;;;0.40;0.30;;;15.70;99.90;;;;;;5091326;28;20405;-79
2021/08/04 06:23:15;;;;;;;0.40;0.20;;;15.70;99.90;;;;;;5090558;28;20834;-78
2021/08/04 06:25:41;;;;;;;0.40;0.20;;;15.70;99.90;;;;;;5073339;28;20389;-80
2021/08/04 06:28:07;;;;;;;0.40;0.30;;;15.80;99.90;;;;;;5090237;28;20398;-78
2021/08/04 06:30:33;;;;;;;0.40;0.30;;;15.80;99.90;;;;;;5091203;28;20400;-79
2021/08/04 06:32:58;;;;;;;0.40;0.20;;;15.60;99.90;;;;;;5090236;28;20466;-79
2021/08/04 06:35:24;;;;;;;0.40;0.20;;;15.60;99.90;;;;;;5095149;28;20388;-78
2021/08/04 06:37:50;;;;;;;0.40;0.20;;;16.00;99.90;;;;;;5077037;28;20418;-78
2021/08/04 06:40:15;;;;;;;0.40;0.30;;;15.90;99.90;;;;;;5094618;28;20722;-79
2021/08/04 06:42:41;;;;;;;0.40;0.20;;;15.90;99.90;;;;;;5077031;28;20400;-78
2021/08/04 06:45:08;;;;;;;0.40;0.30;;;15.90;99.90;;;;;;5094532;28;20374;-78
2021/08/04 06:47:34;;;;;;;0.40;0.30;;;15.90;99.90;;;;;;5076974;28;20393;-78
2021/08/04 06:50:00;;;;;;;0.40;0.20;;;16.10;99.90;;;;;;5094558;28;20390;-78
2021/08/04 06:52:25;;;;;;;0.80;0.70;;;16.20;99.90;;;;;;5094872;28;20803;-79
2021/08/04 06:54:51;;;;;;;0.40;0.30;;;16.20;99.90;;;;;;5095240;28;20385;-79
2021/08/04 06:57:17;;;;;;;0.40;0.20;;;16.30;99.90;;;;;;5094138;28;20518;-78
2021/08/04 06:59:42;;;;;;;0.40;0.20;;;16.30;99.90;;;;;;5095118;28;20448;-79
2021/08/04 07:02:08;;;;;;;0.40;0.25;;;16.40;99.90;;;;;;5075939;28;20412;-78
2021/08/04 07:04:34;;;;;;;0.40;0.23;;;16.60;99.90;;;;;;5094792;28;20378;-79
2021/08/04 07:07:02;;;;;;;0.40;0.30;;;16.70;99.90;;;;;;5094101;28;20777;-78
2021/08/04 07:09:28;;;;;;;0.40;0.20;;;16.60;99.90;;;;;;5094756;28;20370;-78
2021/08/04 07:11:54;;;;;;;0.40;0.20;;;16.60;99.90;;;;;;5094552;28;20842;-78
2021/08/04 07:14:19;;;;;;;0.40;0.20;;;16.60;99.90;;;;;;5094240;28;20389;-77
2021/08/04 07:16:47;;;;;;;0.40;0.20;;;16.50;99.90;;;;;;5094432;28;20409;-78
2021/08/04 07:19:13;;;;;;;0.40;0.30;;;16.50;99.90;;;;;;5094077;28;20389;-77
2021/08/04 07:21:39;;;;;;;0.40;0.20;;;16.50;99.90;;;;;;5094445;28;20411;-78
2021/08/04 07:24:08;;;;;;;0.40;0.30;;;16.60;99.90;;;;;;5093721;28;20401;-78
2021/08/04 07:26:39;;;;;;;0.40;0.20;;;16.60;99.90;;;;;;5094863;28;20378;-79
2021/08/04 07:29:06;;;;;;;0.40;0.20;;;16.60;99.90;;;;;;5092398;28;20562;-78
2021/08/04 07:31:32;;;;;;;0.40;0.20;;;16.60;99.90;;;;;;5093044;28;20410;-77
2021/08/04 07:33:58;;;;;;;0.40;0.20;;;16.70;99.90;;;;;;5107923;28;20950;-77
2021/08/04 07:36:24;;;;;;;0.40;0.30;;;16.90;99.90;;;;;;5092934;28;20492;-78
2021/08/04 07:38:49;;;;;;;0.40;0.30;;;16.80;99.90;;;;;;5092978;28;20853;-78
2021/08/04 07:41:15;;;;;;;0.40;0.30;;;16.80;99.90;;;;;;5092325;28;20711;-77
2021/08/04 07:43:41;;;;;;;0.40;0.20;;;16.80;99.90;;;;;;5092508;28;20477;-77
2021/08/04 07:46:06;;;;;;;0.40;0.30;;;16.90;99.90;;;;;;5091568;28;20418;-78
2021/08/04 07:48:34;;;;;;;0.40;0.30;;;16.90;99.90;;;;;;5092784;28;20846;-78
2021/08/04 07:51:02;;;;;;;0.40;0.30;;;17.00;99.90;;;;;;5092160;28;20425;-77
2021/08/04 07:53:29;;;;;;;0.40;0.30;;;16.90;99.90;;;;;;5092527;28;20480;-78
2021/08/04 07:55:55;;;;;;;0.40;0.30;;;17.00;99.90;;;;;;5092594;28;20595;-78
2021/08/04 07:58:20;;;;;;;0.40;0.30;;;16.80;99.90;;;;;;5091907;28;20389;-78
2021/08/04 08:00:46;;;;;;;0.40;0.30;;;17.20;99.90;;;;;;5092620;28;20371;-78
2021/08/04 08:03:12;;;;;;;0.40;0.30;;;17.10;99.90;;;;;;5092084;28;20453;-78
2021/08/04 08:05:37;;;;;;;0.40;0.30;;;17.40;99.90;;;;;;5092537;28;20405;-77
2021/08/04 08:08:04;;;;;;;0.40;0.30;;;17.20;99.90;;;;;;5107512;28;20392;-76
2021/08/04 08:10:31;;;;;;;0.40;0.30;;;17.30;99.90;;;;;;5074290;28;20716;-78
2021/08/04 08:12:57;;;;;;;0.40;0.30;;;17.20;99.90;;;;;;5092344;28;20385;-78
2021/08/04 08:15:23;;;;;;;0.40;0.30;;;17.20;99.90;;;;;;5092155;28;20463;-77
2021/08/04 08:17:49;;;;;;;0.40;0.30;;;17.70;99.90;;;;;;5092202;28;20452;-77
2021/08/04 08:20:16;;;;;;;0.40;0.30;;;17.40;99.90;;;;;;5091470;28;20398;-78
2021/08/04 08:22:41;;;;;;;0.40;0.30;;;17.30;99.90;;;;;;5092196;28;20410;-78
2021/08/04 08:25:08;;;;;;;0.40;0.30;;;17.40;99.90;;;;;;5091364;28;20467;-78
2021/08/04 08:27:34;;;;;;;0.40;0.20;;;17.40;99.90;;;;;;5010330;28;1805565;-78
2021/08/04 08:30:00;;;;;;;0.40;0.20;;;17.50;99.90;;;;;;5092277;28;20386;-77
2021/08/04 08:32:26;;;;;;;0.40;0.20;;;17.50;99.90;;;;;;5093041;28;20769;-78
2021/08/04 08:34:55;;;;;;;0.40;0.20;;;17.40;99.90;;;;;;5093177;28;20764;-78
2021/08/04 08:37:21;;;;;;;0.40;0.30;;;17.50;99.90;;;;;;5092281;28;20465;-78
2021/08/04 08:39:47;;;;;;;0.40;0.27;;;17.20;99.90;;;;;;5092591;28;20375;-78
2021/08/04 08:42:12;;;;;;;0.40;0.20;;;17.50;99.90;;;;;;5091965;28;20378;-78
2021/08/04 08:44:38;;;;;;;0.40;0.20;;;17.50;99.90;;;;;;5093097;28;20406;-78
2021/08/04 08:47:08;;;;;;;0.40;0.20;;;17.60;99.90;;;;;;5074119;28;20432;-77
2021/08/04 08:49:34;;;;;;;0.40;0.20;;;17.60;99.90;;;;;;5092297;28;20380;-79
2021/08/04 08:52:00;;;;;;;0.40;0.20;;;17.60;99.90;;;;;;5092467;28;20412;-78
2021/08/04 08:54:26;;;;;;;0.40;0.30;;;17.40;99.90;;;;;;5092303;28;20378;-78
2021/08/04 08:56:53;;;;;;;0.40;0.30;;;17.50;99.90;;;;;;5091708;28;20445;-79
2021/08/04 08:59:19;;;;;;;0.40;0.20;;;17.60;99.90;;;;;;5091943;28;20370;-77
2021/08/04 09:01:45;;;;;;;0.40;0.30;;;17.70;99.90;;;;;;5092570;28;20386;-78
2021/08/04 09:04:15;;;;;;;0.40;0.30;;;17.60;99.90;;;;;;5091667;28;20385;-78
2021/08/04 09:06:53;;;;;;;0.40;0.20;;;17.90;99.90;;;;;;5092744;28;20420;-77
2021/08/04 09:09:24;;;;;;;0.40;0.20;;;18.00;99.90;;;;;;5091478;28;20477;-78
2021/08/04 09:11:56;;;;;;;0.40;0.20;;;17.90;99.90;;;;;;5074334;28;20390;-78
2021/08/04 09:14:30;;;;;;;0.40;0.30;;;17.90;99.90;;;;;;5091628;28;20681;-78
2021/08/04 09:17:05;;;;;;;0.40;0.20;;;17.90;99.90;;;;;;5092060;28;20442;-78
2021/08/04 09:19:33;;;;;;;0.40;0.30;;;18.40;99.90;;;;;;5092336;28;20435;-78
2021/08/04 09:22:22;;;;;;;0.40;0.20;;;18.20;99.90;;;;;;5092197;28;20378;-78
2021/08/04 09:24:58;;;;;;;0.40;0.20;;;18.10;99.90;;;;;;5092071;28;20787;-77
2021/08/04 09:27:44;;;;;;;0.40;0.20;;;18.40;99.90;;;;;;5091078;28;20727;-77
2021/08/04 09:30:12;;;;;;;0.40;0.20;;;18.70;99.90;;;;;;5091238;28;20382;-79
2021/08/04 09:32:38;;;;;;;0.40;0.20;;;18.10;99.90;;;;;;5092056;28;20374;-77
2021/08/04 09:35:15;;;;;;;0.40;0.20;;;18.10;99.90;;;;;;5091108;28;20374;-77
2021/08/04 09:37:41;;;;;;;0.40;0.20;;;18.30;99.90;;;;;;5091935;28;20538;-79
2021/08/04 09:40:09;;;;;;;0.40;0.30;;;18.30;99.90;;;;;;5090681;28;20780;-77
2021/08/04 09:42:48;;;;;;;0.40;0.20;;;18.60;99.90;;;;;;5091775;28;20457;-79
2021/08/04 09:45:16;;;;;;;0.40;0.20;;;18.20;99.90;;;;;;5091080;28;20466;-79
2021/08/04 09:48:18;;;;;;;0.40;0.20;;;18.60;99.90;;;;;;5091677;28;20374;-78
2021/08/04 09:50:53;;;;;;;0.40;0.30;;;18.60;99.90;;;;;;5048841;28;20413;-78
2021/08/04 09:53:22;;;;;;;0.40;0.30;;;18.40;99.90;;;;;;5090978;28;20428;-79
2021/08/04 09:56:07;;;;;;;0.40;0.30;;;18.50;99.90;;;;;;5091426;28;20370;-78
2021/08/04 09:58:35;;;;;;;0.40;0.20;;;18.70;99.90;;;;;;5091756;28;20385;-78
2021/08/04 10:01:02;;;;;;;0.40;0.20;;;18.60;99.90;;;;;;5107110;28;20867;-78
2021/08/04 10:03:29;;;;;;;0.40;0.20;;;18.70;99.90;;;;;;5090767;28;20384;-79
2021/08/04 10:05:55;;;;;;;0.40;0.30;;;18.80;99.90;;;;;;5090982;28;20890;-79
2021/08/04 10:08:21;;;;;;;0.40;0.20;;;18.80;99.90;;;;;;5090664;28;20409;-79
2021/08/04 10:10:50;;;;;;;0.40;0.20;;;18.80;99.90;;;;;;5091314;28;20469;-78
2021/08/04 10:13:18;;;;;;;0.40;0.30;;;18.60;99.90;;;;;;5091060;28;20478;-77
2021/08/04 10:15:50;;;;;;;0.40;0.30;;;18.80;99.90;;;;;;5091085;28;20443;-78
2021/08/04 10:18:21;;;;;;;0.40;0.30;;;18.70;99.90;;;;;;5090839;28;20382;-78
2021/08/04 10:20:51;;;;;;;0.40;0.30;;;18.80;99.90;;;;;;5090948;28;20800;-78
2021/08/04 10:23:19;;;;;;;0.40;0.30;;;19.00;99.90;;;;;;5072564;28;20394;-78
2021/08/04 10:25:46;;;;;;;0.40;0.30;;;19.00;99.90;;;;;;5091241;28;20382;-79
2021/08/04 10:28:12;;;;;;;0.40;0.22;;;18.70;99.90;;;;;;5090498;28;20413;-79
2021/08/04 10:30:38;;;;;;;0.40;0.20;;;18.50;99.90;;;;;;5091101;28;20374;-79
2021/08/04 10:33:05;;;;;;;0.40;0.20;;;18.70;99.90;;;;;;5091169;28;20374;-78
2021/08/04 10:35:33;;;;;;;0.40;0.20;;;18.70;99.90;;;;;;5090363;28;20457;-79
2021/08/04 10:37:59;;;;;;;0.40;0.30;;;18.80;99.90;;;;;;5091036;28;20406;-79
2021/08/04 10:40:26;;;;;;;0.40;0.20;;;18.80;99.90;;;;;;5090375;28;20444;-78
2021/08/04 10:42:53;;;;;;;0.40;0.20;;;18.70;99.90;;;;;;5090846;28;20882;-80
2021/08/04 10:45:27;;;;;;;0.40;0.20;;;18.80;99.90;;;;;;5090037;28;20742;-80
2021/08/04 10:47:59;;;;;;;0.40;0.20;;;18.60;99.90;;;;;;5090917;28;20910;-78
2021/08/04 10:50:26;;;;;;;0.40;0.30;;;18.80;99.90;;;;;;5090428;28;20473;-81
2021/08/04 10:52:57;;;;;;;0.40;0.20;;;18.50;99.90;;;;;;5091015;28;20382;-79
2021/08/04 10:55:27;;;;;;;0.40;0.30;;;18.90;99.90;;;;;;5090307;28;20378;-79
2021/08/04 10:58:05;;;;;;;0.40;0.20;;;18.40;99.90;;;;;;5090915;28;20429;-77
2021/08/04 11:00:36;;;;;;;0.40;0.20;;;18.60;99.90;;;;;;5089862;28;20404;-79
2021/08/04 11:03:29;;;;;;;0.40;0.20;;;18.70;99.90;;;;;;5090977;28;20420;-79
2021/08/04 11:06:12;;;;;;;0.40;0.30;;;18.70;99.90;;;;;;5090975;28;20382;-79
2021/08/04 11:08:40;;;;;;;0.40;0.20;;;17.40;99.90;;;;;;5090823;28;20374;-77
2021/08/04 11:11:06;;;;;;;0.40;0.20;;;18.70;99.90;;;;;;5090780;28;20465;-77
2021/08/04 11:13:54;;;;;;;0.40;0.30;;;18.30;99.90;;;;;;5089878;28;20890;-76
2021/08/04 11:16:34;;;;;;;0.40;0.20;;;18.70;99.90;;;;;;5089869;28;20438;-77
2021/08/04 11:19:06;;;;;;;0.40;0.20;;;18.60;99.90;;;;;;5090356;28;20417;-75
2021/08/04 11:21:33;;;;;;;0.40;0.30;;;18.40;99.90;;;;;;5093135;28;20896;-77
2021/08/04 11:23:59;;;;;;;0.40;0.28;;;18.60;99.90;;;;;;5094499;28;20466;-77
2021/08/04 11:26:29;;;;;;;0.40;0.30;;;18.50;99.90;;;;;;5093682;28;20414;-77
2021/08/04 11:28:55;;;;;;;0.40;0.20;;;18.40;99.90;;;;;;5094020;28;20450;-77
2021/08/04 11:31:21;;;;;;;0.40;0.20;;;18.50;99.90;;;;;;5093585;28;20453;-79
2021/08/04 11:33:47;;;;;;;0.40;0.30;;;18.50;99.90;;;;;;5094223;28;20397;-79
2021/08/04 11:36:16;;;;;;;0.40;0.20;;;18.70;99.90;;;;;;5093397;28;20410;-76
2021/08/04 11:38:51;;;;;;;0.40;0.30;;;18.50;99.90;;;;;;5094178;28;20390;-77
2021/08/04 11:41:23;;;;;;;0.40;0.30;;;18.50;99.90;;;;;;5093419;28;20377;-76
2021/08/04 11:43:51;;;;;;;0.40;0.20;;;18.50;99.90;;;;;;5094125;28;20374;-79
2021/08/04 11:46:28;;;;;;;0.40;0.20;;;18.40;99.90;;;;;;5093228;28;20382;-79
2021/08/04 11:48:54;;;;;;;0.40;0.30;;;18.60;99.90;;;;;;5093944;28;20828;-77
2021/08/04 11:51:35;;;;;;;0.40;0.30;;;18.40;99.90;;;;;;5093181;28;20413;-79
2021/08/04 11:54:01;;;;;;;0.40;0.20;;;18.50;99.90;;;;;;5093846;28;20378;-79
2021/08/04 11:56:27;;;;;;;0.40;0.20;;;18.30;99.90;;;;;;5092759;28;20878;-77
2021/08/04 11:58:58;;;;;;;0.40;0.30;;;18.40;99.90;;;;;;5093742;28;20459;-77
2021/08/04 12:01:23;;;;;;;0.40;0.30;;;18.30;99.90;;;;;;5093417;28;20382;-77
2021/08/04 12:04:08;;;;;;;0.40;0.20;;;18.10;99.90;;;;;;5093868;28;20527;-78
2021/08/04 12:06:37;;;;;;;0.40;0.20;;;18.50;99.90;;;;;;5092858;28;20473;-77
2021/08/04 12:09:23;;;;;;;0.40;0.20;;;18.60;99.90;;;;;;5093588;28;20386;-80
2021/08/04 12:11:50;;;;;;;0.40;0.30;;;18.50;99.90;;;;;;5093504;28;20379;-77
2021/08/04 12:14:18;;;;;;;0.40;0.20;;;18.50;99.90;;;;;;5092798;28;20405;-77
2021/08/04 12:16:45;;;;;;;0.40;0.30;;;18.70;99.90;;;;;;5093102;28;20421;-77
2021/08/04 12:19:25;;;;;;;0.40;0.20;;;18.50;99.90;;;;;;5092953;28;20390;-79
2021/08/04 12:21:50;;;;;;;0.40;0.28;;;18.20;99.90;;;;;;5093248;28;20375;-78
2021/08/04 12:24:16;;;;;;;0.40;0.30;;;18.40;99.90;;;;;;5092684;28;20527;-79
2021/08/04 12:26:47;;;;;;;0.40;0.30;;;18.40;99.90;;;;;;5092881;28;20386;-79
2021/08/04 12:29:20;;;;;;;0.40;0.30;;;18.20;99.90;;;;;;5093177;28;20422;-77
2021/08/04 12:32:06;;;;;;;0.40;0.30;;;18.40;99.90;;;;;;5091652;28;20382;-80
2021/08/04 12:34:45;;;;;;;0.40;0.30;;;18.40;99.90;;;;;;5092384;28;20414;-77
2021/08/04 12:37:12;;;;;;;0.40;0.30;;;18.30;99.90;;;;;;5092897;28;20447;-79
2021/08/04 12:39:39;;;;;;;0.40;0.20;;;18.10;99.90;;;;;;5092393;28;20382;-78
2021/08/04 12:42:05;;;;;;;0.40;0.25;;;18.20;99.90;;;;;;5092779;28;20584;-78
2021/08/04 12:44:30;;;;;;;0.40;0.30;;;18.00;99.90;;;;;;5092346;28;20735;-78
2021/08/04 12:46:59;;;;;;;0.40;0.30;;;18.10;99.90;;;;;;5092887;28;20386;-78
2021/08/04 12:49:27;;;;;;;0.40;0.20;;;18.20;99.90;;;;;;5091725;28;20398;-78
2021/08/04 12:51:58;;;;;;;0.40;0.20;;;18.30;99.90;;;;;;5092426;28;20473;-79